Tiempo atmosférico en la estación meteorológica de Alcañices, Zamora (840 m.)



Fecha
DESCASC
Temp. máxima en grados centígrados (hora)
DESCASC
Temp. mínima en grados centígrados (hora)
DESCASC
Temp. media en grados centígrados
DESCASC
Racha de viento máxima en m/sg (hora)
DESCASC
Velocidad máxima media en intervalos de 10 minutos(hora)
DESCASC
Precipitaciones diarias en mm
DESCASC
Precipitaciones de 00:00 a 06:00 en mm
DESCASC
Precipitaciones de 06:00 a 12:00 en mm
DESCASC
Precipitaciones de 12:00 a 18:00 en mm
DESCASC
Precipitaciones de 18:00 a 24:00 en mm
DESCASC
25-04-2019 7.7 (16:30) 0.9 (03:10) 4.3 18.89 (17:00) 10.56 (16:40) 11.8 5 0.8 4.2 1.8
24-04-2019 9.3 (14:20) 0 (07:50) 4.7 19.17 (13:30) 11.94 (13:30) 23 2.6 8 6.8 5.6
23-04-2019 8.4 (12:50) 2.5 (23:30) 5.4 11.94 (19:30) 7.22 (02:30) 4.4 2 0 1.4 1
22-04-2019 16.6 (16:50) 3.9 (00:00) 10.3 11.67 (20:40) 8.89 (20:40) 0.8 0 0 0 0.8
21-04-2019 17.6 (16:00) 6.3 (00:00) 12 13.89 (13:40) 9.17 (13:40) 1.6 0 0 0.2 1.4
20-04-2019 20.8 (17:40) 8.4 (00:00) 14.6 16.67 (13:20) 11.39 (13:00) 0 0 0 0 0
19-04-2019 15.5 (16:20) 6.9 (00:00) 11.2 15 (19:20) 11.67 (19:10) 8.8 8 0.8 0 0
18-04-2019 15.8 (18:20) 6.2 (00:00) 11 8.61 (18:40) 5.56 (20:40) 7.4 2.8 0 0.2 4.4
17-04-2019 16.9 (16:00) 5.5 (00:00) 11.2 14.72 (18:50) 9.72 (16:30) 8.2 0 0 0 8.2
16-04-2019 17.6 (17:50) 0.6 (00:00) 9.1 8.33 (16:00) 5 (18:00) 0 0 0 0 0
15-04-2019 16 (13:20) 6.4 (00:00) 11.2 19.44 (14:20) 11.39 (14:20) 0.2 0 0 0.2 0
14-04-2019 17.6 (18:10) 9.7 (00:00) 13.7 8.33 (00:10) 5.56 (00:10) 0 0 0 0 0
13-04-2019 19 (17:30) 4.8 (00:00) 11.9 10.28 (14:30) 5.56 (17:50) 0 0 0 0 0
12-04-2019 17.7 (17:30) 0.7 (06:20) 9.2 7.5 (19:20) 5.56 (03:50) 0 0 0 0 0
11-04-2019 15.2 (19:10) 0.3 (00:00) 7.7 6.39 (23:50) 4.17 (23:50) 0 0 0 0 0
10-04-2019 14.5 (17:30) 2.9 (00:00) 8.7 11.94 (16:10) 7.78 (17:10) 0.4 0.2 0 0 0.2
09-04-2019 9.4 (19:00) 1.2 (00:00) 5.3 14.44 (19:20) 8.33 (16:10) 5.8 0.2 4.8 0.4 0.4
08-04-2019 12.2 (16:30) 4.6 (00:00) 8.4 13.61 (13:20) 9.72 (13:20) 1.8 1.6 0.2 0 0
07-04-2019 7.8 (23:30) 1 (00:00) 4.4 11.67 (23:10) 6.94 (23:59) 6.6 0.2 0 2.4 4
06-04-2019 7.1 (19:00) 1 (00:00) 4 16.94 (17:00) 11.39 (17:00) 6.4 2.2 2 1.6 0.6
05-04-2019 8.5 (16:40) 1.1 (00:00) 4.8 12.22 (15:10) 8.33 (15:10) 4.4 2.6 0 0.4 1.4
04-04-2019 7.9 (14:50) -2.4 (-00:0) 2.8 12.78 (16:50) 8.06 (16:40) 4.4 0 0 0.2 4.2
03-04-2019 10.7 (13:10) 0.4 (23:59) 5.5 12.5 (17:50) 8.61 (17:00) 0 0 0 0 0
02-04-2019 17 (17:30) 2.5 (00:00) 9.8 11.94 (19:20) 7.22 (18:40) 0 0 0 0 0
01-04-2019 17.2 (15:30) 2.2 (00:00) 9.7 9.72 (18:30) 6.67 (18:30) 0 0 0 0 0
31-03-2019 18.2 (17:40) 4.6 (00:00) 11.4 10.28 (14:00) 7.22 (11:30) 0 0 0 0 0
30-03-2019 18.1 (16:10) 5.4 (00:00) 11.8 6.11 (00:10) 4.72 (17:30) 0 0 0 0 0
29-03-2019 17.9 (16:40) 2.4 (00:00) 10.1 7.78 (13:50) 5.56 (00:10) 0 0 0 0 0
28-03-2019 16.9 (16:40) 1.2 (00:00) 9 12.78 (03:20) 9.44 (03:20) 0 0 0 0 0
27-03-2019 18.1 (17:00) 3.2 (00:00) 10.7 14.17 (02:00) 10 (09:30) 0 0 0 0 0

Gráficas

Temp. máximas Temp. mínimas Temp. medias Precipitaciones Rachas de viento máximas Velocidades máximas media en intervalos de 10 minutos

Datos horarios

Fecha y hora oficial Temperatura (ºC) Velocidad del viento (km/h) Dirección del viento Racha (km/h) Dirección de racha Precipitación (mm) Presión (hPa) Tendencia (hPa) Humedad (%)
2019-04-25 23:00:00 5.3 31 Oeste 45 Oeste 0 -- -- 98
2019-04-25 22:00:00 4.9 28 Sudoeste 48 Sudoeste 0 -- -- 97
2019-04-25 21:00:00 5.4 28 Sudoeste 42 Sudoeste 0 -- -- 94
2019-04-25 20:00:00 5.8 27 Sudoeste 52 Sudoeste 0.4 -- -- 92
2019-04-25 19:00:00 4.6 21 Oeste 55 Sudoeste 1.4 -- -- 97
2019-04-25 18:00:00 5.7 25 Sudoeste 54 Sudoeste 1.4 -- -- 95
2019-04-25 17:00:00 6.1 37 Sudoeste 68 Sudoeste 0.4 -- -- 92
2019-04-25 16:00:00 7.5 32 Sudoeste 53 Sudoeste 0.4 -- -- 87
2019-04-25 15:00:00 6 26 Sudoeste 41 Sudoeste 0.4 -- -- 96
2019-04-25 14:00:00 5.7 26 Sudoeste 38 Sudoeste 0.8 -- -- 93
2019-04-25 13:00:00 3.7 21 Oeste 53 Sudoeste 0.8 -- -- 95
2019-04-25 12:00:00 5.7 34 Sudoeste 51 Sudoeste 0 -- -- 85
2019-04-25 11:00:00 5 27 Sudoeste 43 Sudoeste 0 -- -- 89
2019-04-25 10:00:00 5.2 26 Sudoeste 39 Sudoeste 0 -- -- 92
2019-04-25 09:00:00 3.3 17 Sudoeste 37 Sudoeste 0 -- -- 99
2019-04-25 08:00:00 2.8 23 Sudoeste 41 Sudoeste 0 -- -- 100
2019-04-25 07:00:00 2.2 20 Sudoeste 32 Sudoeste 0.8 -- -- 100
2019-04-25 06:00:00 1.7 12 Oeste 26 Oeste 1.2 -- -- 100
2019-04-25 05:00:00 2.8 13 Oeste 28 Sudoeste 0.4 -- -- 100
2019-04-25 04:00:00 2.6 18 Sudoeste 31 Sudoeste 0.6 -- -- 100
2019-04-25 03:00:00 1.1 15 Oeste 58 Oeste 2.6 -- -- 99
2019-04-25 02:00:00 4.4 20 Sudoeste 31 Sur 0 -- -- 100
2019-04-25 01:00:00 4.3 19 Oeste 30 Oeste 0.2 -- -- 100
2019-04-25 00:00:00 4.3 14 Oeste 32 Sudoeste 1.4 -- -- 100
2019-04-24 23:00:00 4.8 19 Oeste 40 Oeste 0.8 -- -- 98
2019-04-24 22:00:00 5.7 22 Sudoeste 44 Sudoeste 0.4 -- -- 99
2019-04-24 21:00:00 5.7 24 Sudoeste 39 Sudoeste 0.4 -- -- 99
2019-04-24 20:00:00 6.2 24 Sudoeste 55 Oeste 1.8 -- -- 98
2019-04-24 19:00:00 6.5 25 Sudoeste 45 Sudoeste 0.8 -- -- 98
2019-04-24 18:00:00 6.7 30 Sudoeste 47 Sudoeste 2.2 -- -- 96
2019-04-24 17:00:00 7.3 18 Sudoeste 46 Sudoeste 1.8 -- -- 99
2019-04-24 16:00:00 7.4 34 Sudoeste 53 Sudoeste 2 -- -- 96
2019-04-24 15:00:00 8.3 31 Sudoeste 59 Sudoeste 0.2 -- -- 95
2019-04-24 14:00:00 9.1 37 Sudoeste 69 Sudoeste 0.6 -- -- 94
2019-04-24 13:00:00 8.6 37 Sudoeste 54 Sudoeste 0 -- -- 95
2019-04-24 12:00:00 7.2 27 Sudoeste 50 Sudoeste 0.6 -- -- 100
2019-04-24 11:00:00 5.5 24 Sudoeste 39 Sur 0.6 -- -- 100
2019-04-24 10:00:00 1.4 12 Sur 16 Sur 2 -- -- 100
2019-04-24 09:00:00 0.2 10 Sudeste 15 Sudeste 1.4 -- -- 100
2019-04-24 08:00:00 0 10 Sur 34 Sur 1.2 -- -- 100
2019-04-24 07:00:00 1.6 23 Sur 37 Sur 2.2 -- -- 99
2019-04-24 06:00:00 2.2 17 Sur 38 Sur 1.2 -- -- 100
2019-04-24 05:00:00 2.4 27 Sur 40 Sur 1.2 -- -- 99
2019-04-24 04:00:00 2.5 22 Sur 37 Sudoeste 0.2 -- -- 98
2019-04-24 03:00:00 2.8 17 Sur 28 Sur 0 -- -- 99
2019-04-24 02:00:00 2.9 17 Sur 31 Sudoeste 0 -- -- 98
2019-04-24 01:00:00 3.1 15 Sudoeste 24 Sudoeste 0 -- -- 98
2019-04-24 00:00:00 2.5 12 Sudoeste 24 Oeste 0 -- -- 96
2019-04-23 23:00:00 3.4 16 Sudoeste 23 Sudoeste 0 -- -- 92
2019-04-23 22:00:00 4.1 11 Oeste 22 Sudoeste 0 -- -- 97
2019-04-23 21:00:00 4.1 13 Sudoeste 26 Sudoeste 0 -- -- 96
2019-04-23 20:00:00 5.2 14 Sudoeste 43 Sudoeste 0.8 -- -- 93
2019-04-23 19:00:00 5.5 10 Sudoeste 32 Oeste 0.2 -- -- 89
2019-04-23 18:00:00 6.3 17 Sudoeste 34 Oeste 0.2 -- -- 85
2019-04-23 17:00:00 6 13 Sudoeste 20 Sudoeste 0 -- -- 92
2019-04-23 16:00:00 5 14 Sudoeste 33 Sudoeste 0.2 -- -- 92
2019-04-23 15:00:00 5.1 23 Sudoeste 36 Sudoeste 0.2 -- -- 91
2019-04-23 14:00:00 6 17 Sudoeste 30 Sudoeste 0.8 -- -- 88
2019-04-23 13:00:00 6.8 21 Sudoeste 34 Sudoeste 0 -- -- 78
2019-04-23 12:00:00 6.8 19 Sudoeste 35 Sur 0 -- -- 73
2019-04-23 11:00:00 6.3 23 Sudoeste 32 Oeste 0 -- -- 82
2019-04-23 10:00:00 5.5 21 Sudoeste 30 Sudoeste 0 -- -- 88
2019-04-23 09:00:00 3.9 15 Sudoeste 29 Sudoeste 0 -- -- 97
2019-04-23 08:00:00 4.1 16 Sudoeste 28 Sudoeste 0 -- -- 99
2019-04-23 07:00:00 4.3 17 Sudoeste 28 Sur 0 -- -- 99
2019-04-23 06:00:00 4.2 16 Sudoeste 29 Sudoeste 0.2 -- -- 99
2019-04-23 05:00:00 4.5 17 Sudoeste 28 Sur 0.2 -- -- 97
2019-04-23 04:00:00 4.7 10 Sudoeste 27 Oeste 0.4 -- -- 97
2019-04-23 03:00:00 5.3 16 Oeste 37 Oeste 0.6 -- -- 97
2019-04-23 02:00:00 7.4 6 Sudoeste 12 Sur 0.4 -- -- 96
2019-04-23 01:00:00 7.5 4 Sur 17 Sudoeste 0.2 -- -- 94
2019-04-23 00:00:00 7.7 5 Sudoeste 24 Sudoeste 0.4 -- -- 92
2019-04-22 23:00:00 8.8 15 Sudoeste 26 Oeste 0.4 -- -- 90
2019-04-22 22:00:00 10.2 10 Sudoeste 23 Oeste 0 -- -- 81
2019-04-22 21:00:00 11.5 17 Sudoeste 42 Oeste 0 -- -- 72
2019-04-22 20:00:00 13.4 11 Sudoeste 33 Sur 0 -- -- 63
2019-04-22 19:00:00 14.9 21 Sudoeste 31 Sudoeste 0 -- -- 57
2019-04-22 18:00:00 15.8 20 Sudoeste 33 Sudoeste 0 -- -- 51
2019-04-22 17:00:00 16.2 22 Sudoeste 35 Sudoeste 0 -- -- 42
2019-04-22 16:00:00 15.2 17 Oeste 34 Sudoeste 0 -- -- 52
2019-04-22 15:00:00 15.5 18 Sudoeste 28 Sudoeste 0 -- -- 53
2019-04-22 14:00:00 14 15 Sudoeste 27 Sudoeste 0 -- -- 62
2019-04-22 13:00:00 13.5 12 Sudoeste 28 Sudoeste 0 -- -- 62
2019-04-22 12:00:00 12.4 11 Sur 19 Sur 0 -- -- 69
2019-04-22 11:00:00 10.6 8 Sur 12 Sudeste 0 -- -- 76
2019-04-22 10:00:00 9.1 9 Este 14 Este 0 -- -- 86
2019-04-22 09:00:00 6.6 5 Este 8 Este 0 -- -- 99
2019-04-22 08:00:00 4.5 5 Nordeste 14 Nordeste 0 -- -- 100
2019-04-22 07:00:00 4.6 12 Nordeste 14 Este 0 -- -- 100
2019-04-22 06:00:00 4.8 10 Nordeste 12 Nordeste 0 -- -- 99
2019-04-22 05:00:00 5 5 Norte 13 Nordeste 0 -- -- 97
2019-04-22 04:00:00 6 12 Nordeste 13 Nordeste 0 -- -- 96
2019-04-22 03:00:00 6.3 10 Nordeste 14 Nordeste 0 -- -- 94
2019-04-22 02:00:00 7.2 9 Nordeste 16 Nordeste 0 -- -- 91
2019-04-22 01:00:00 8.1 10 Nordeste 14 Nordeste 0 -- -- 89
2019-04-22 00:00:00 9 8 Nordeste 14 Nordeste 0 -- -- 86
2019-04-21 23:00:00 9.2 9 Nordeste 15 Este 0 -- -- 85
2019-04-21 22:00:00 9.9 11 Este 15 Este 0 -- -- 85
2019-04-21 21:00:00 10.4 12 Este 19 Nordeste 0.8 -- -- 85
2019-04-21 20:00:00 12.1 5 Noroeste 20 Este 0.6 -- -- 85
2019-04-21 19:00:00 17.4 6 Sudoeste 15 Sudoeste 0 -- -- 52
2019-04-21 18:00:00 13 10 Norte 33 Noroeste 0.2 -- -- 69
2019-04-21 17:00:00 17.1 17 Este 35 Nordeste 0 -- -- 47
2019-04-21 16:00:00 17.6 21 Este 39 Nordeste 0 -- -- 48
2019-04-21 15:00:00 16.6 22 Este 43 Este 0 -- -- 48
2019-04-21 14:00:00 15.9 28 Este 50 Nordeste 0 -- -- 48
2019-04-21 13:00:00 15.3 26 Nordeste 40 Este 0 -- -- 53
2019-04-21 12:00:00 14.5 18 Este 30 Este 0 -- -- 60
2019-04-21 11:00:00 12.6 19 Nordeste 29 Este 0 -- -- 67
2019-04-21 10:00:00 10.8 16 Nordeste 23 Este 0 -- -- 71
2019-04-21 09:00:00 8.7 13 Nordeste 18 Nordeste 0 -- -- 80
2019-04-21 08:00:00 6.5 14 Nordeste 24 Nordeste 0 -- -- 87
2019-04-21 07:00:00 7.2 15 Nordeste 25 Nordeste 0 -- -- 83
2019-04-21 06:00:00 8.7 15 Nordeste 30 Nordeste 0 -- -- 76
2019-04-21 05:00:00 9.5 23 Nordeste 33 Nordeste 0 -- -- 70
2019-04-21 04:00:00 10.4 14 Nordeste 29 Nordeste 0 -- -- 66
2019-04-21 03:00:00 10.3 19 Nordeste 35 Nordeste 0 -- -- 63
2019-04-21 02:00:00 11 24 Nordeste 32 Nordeste 0 -- -- 60
2019-04-21 01:00:00 10.3 18 Nordeste 26 Nordeste 0 -- -- 58
2019-04-21 00:00:00 10.8 15 Nordeste 23 Nordeste 0 -- -- 57
2019-04-20 23:00:00 11.6 18 Este 23 Nordeste 0 -- -- 56
2019-04-20 22:00:00 13.4 13 Nordeste 26 Este 0 -- -- 50
2019-04-20 21:00:00 16.2 23 Este 40 Este 0 -- -- 41
2019-04-20 20:00:00 18.3 27 Este 45 Nordeste 0 -- -- 38
2019-04-20 19:00:00 19.9 29 Nordeste 45 Nordeste 0 -- -- 33
2019-04-20 18:00:00 20.4 32 Nordeste 47 Nordeste 0 -- -- 32
2019-04-20 17:00:00 20.6 30 Nordeste 50 Este 0 -- -- 33
2019-04-20 16:00:00 20.5 31 Nordeste 48 Este 0 -- -- 38
2019-04-20 15:00:00 19.8 32 Nordeste 46 Este 0 -- -- 40
2019-04-20 14:00:00 18.3 33 Nordeste 60 Nordeste 0 -- -- 51
2019-04-20 13:00:00 17.4 41 Este 58 Nordeste 0 -- -- 51
2019-04-20 12:00:00 16.6 38 Este 57 Este 0 -- -- 51
2019-04-20 11:00:00 15.6 35 Nordeste 49 Nordeste 0 -- -- 50
2019-04-20 10:00:00 13.2 24 Nordeste 37 Nordeste 0 -- -- 64
2019-04-20 09:00:00 10.7 14 Nordeste 21 Nordeste 0 -- -- 73
2019-04-20 08:00:00 8.4 7 Nordeste 18 Nordeste 0 -- -- 82
2019-04-20 07:00:00 9.6 17 Nordeste 28 Nordeste 0 -- -- 78
2019-04-20 06:00:00 10 19 Nordeste 30 Nordeste 0 -- -- 78
2019-04-20 05:00:00 10.4 21 Nordeste 34 Nordeste 0 -- -- 75
2019-04-20 04:00:00 11.3 22 Nordeste 39 Nordeste 0 -- -- 71
2019-04-20 03:00:00 10.7 17 Nordeste 36 Nordeste 0 -- -- 77
2019-04-20 02:00:00 11.2 25 Nordeste 41 Nordeste 0 -- -- 73
2019-04-20 01:00:00 11.6 30 Nordeste 47 Nordeste 0 -- -- 72
2019-04-20 00:00:00 12.4 35 Nordeste 52 Nordeste 0 -- -- 66
2019-04-19 23:00:00 12.7 36 Nordeste 51 Nordeste 0 -- -- 66
2019-04-19 22:00:00 12.3 28 Nordeste 47 Nordeste 0 -- -- 73
2019-04-19 21:00:00 12.4 26 Nordeste 40 Nordeste 0 -- -- 76
2019-04-19 20:00:00 12.3 30 Nordeste 54 Este 0 -- -- 70
2019-04-19 19:00:00 12.5 36 Este 51 Nordeste 0 -- -- 76
2019-04-19 18:00:00 13.2 36 Nordeste 52 Este 0 -- -- 73
2019-04-19 17:00:00 14.3 31 Nordeste 45 Este 0 -- -- 66
2019-04-19 16:00:00 13.6 26 Nordeste 45 Nordeste 0 -- -- 70
2019-04-19 15:00:00 13.9 25 Nordeste 44 Nordeste 0 -- -- 72
2019-04-19 14:00:00 12.6 23 Nordeste 36 Este 0 -- -- 72
2019-04-19 13:00:00 12.6 23 Nordeste 35 Este 0 -- -- 73
2019-04-19 12:00:00 10.2 26 Nordeste 36 Este 0 -- -- 87
2019-04-19 11:00:00 10.6 24 Este 34 Este 0 -- -- 87
2019-04-19 10:00:00 9 25 Este 36 Este 0 -- -- 95
2019-04-19 09:00:00 7.9 21 Este 35 Este 0.2 -- -- 100
2019-04-19 08:00:00 7.2 19 Este 28 Nordeste 0 -- -- 100
2019-04-19 07:00:00 7 14 Este 23 Este 0.6 -- -- 100
2019-04-19 06:00:00 7 12 Norte 16 Norte 0.4 -- -- 100
2019-04-19 05:00:00 7.2 12 Norte 21 Norte 2.2 -- -- 100
2019-04-19 04:00:00 7.6 14 Nordeste 27 Norte 2.2 -- -- 99
2019-04-19 03:00:00 7.6 13 Norte 21 Norte 1.4 -- -- 99
2019-04-19 02:00:00 7.5 14 Norte 20 Norte 0.6 -- -- 99
2019-04-19 01:00:00 7.9 11 Norte 22 Norte 1.2 -- -- 100
2019-04-19 00:00:00 7.9 7 Noroeste 10 Noroeste 0.8 -- -- 99
2019-04-18 23:00:00 8 5 Norte 17 Nordeste 1.2 -- -- 97
2019-04-18 22:00:00 8.6 14 Nordeste 19 Nordeste 0 -- -- 91
2019-04-18 21:00:00 9.4 16 Nordeste 27 Este 0 -- -- 87
2019-04-18 20:00:00 10.5 14 Este 29 Este 0 -- -- 84
2019-04-18 19:00:00 10.4 10 Nordeste 31 Nordeste 2.4 -- -- 88
2019-04-18 18:00:00 15 6 Norte 17 Nordeste 0 -- -- 53
2019-04-18 17:00:00 14.2 9 Nordeste 18 Norte 0 -- -- 59
2019-04-18 16:00:00 14.2 8 Nordeste 20 Este 0.2 -- -- 60
2019-04-18 15:00:00 12.4 13 Este 19 Este 0 -- -- 70
2019-04-18 14:00:00 12.2 9 Nordeste 17 Nordeste 0 -- -- 70
2019-04-18 13:00:00 10.8 13 Este 18 Este 0 -- -- 81
2019-04-18 12:00:00 9.9 10 Este 14 Este 0 -- -- 85
2019-04-18 11:00:00 9.1 7 Sudeste 10 Sudeste 0 -- -- 89
2019-04-18 10:00:00 7.8 3 Sur 9 Sudeste 0 -- -- 96
2019-04-18 09:00:00 7 3 Sudeste 4 Sudeste 0 -- -- 100
2019-04-18 08:00:00 6.2 2 Este 18 Sur 0 -- -- 100
2019-04-18 07:00:00 6.9 14 Sudoeste 24 Sudoeste 0 -- -- 100
2019-04-18 06:00:00 7.1 14 Sur 24 Sur 0 -- -- 100
2019-04-18 05:00:00 7.5 12 Sur 18 Sur 0.2 -- -- 100
2019-04-18 04:00:00 7.2 10 Sur 21 Sur 1 -- -- 100
2019-04-18 03:00:00 7 12 Sudoeste 23 Sudoeste 0.8 -- -- 99
2019-04-18 02:00:00 7.3 16 Sudoeste 28 Sudoeste 0.6 -- -- 100
2019-04-18 01:00:00 7.7 15 Sur 22 Sudoeste 0.2 -- -- 100
2019-04-18 00:00:00 7.5 16 Sudoeste 26 Sudoeste 1 -- -- 99
2019-04-17 23:00:00 8.2 11 Sur 17 Sur 0.4 -- -- 99
2019-04-17 22:00:00 8.3 10 Sur 28 Sur 1.2 -- -- 98
2019-04-17 21:00:00 8.8 18 Sur 28 Sudoeste 2.2 -- -- 97
2019-04-17 20:00:00 8.8 19 Sudoeste 39 Sudoeste 1.8 -- -- 98
2019-04-17 19:00:00 10.4 25 Sudoeste 53 Sudoeste 1.6 -- -- 95
2019-04-17 18:00:00 15.8 23 Sur 44 Sur 0 -- -- 51
2019-04-17 17:00:00 16.3 27 Sudeste 48 Sudeste 0 -- -- 47
2019-04-17 16:00:00 16.9 25 Sudeste 39 Sur 0 -- -- 47
2019-04-17 15:00:00 15.7 22 Sudeste 32 Sudeste 0 -- -- 54
2019-04-17 14:00:00 15 17 Sur 34 Sur 0 -- -- 58
2019-04-17 13:00:00 13.7 16 Sur 37 Sur 0 -- -- 62
2019-04-17 12:00:00 13 18 Sur 26 Sur 0 -- -- 63
2019-04-17 11:00:00 13.3 8 Sudoeste 18 Sur 0 -- -- 61
2019-04-17 10:00:00 11.6 5 Nordeste 10 Este 0 -- -- 71
2019-04-17 09:00:00 9.2 5 Sudeste 7 Este 0 -- -- 74
2019-04-17 08:00:00 5.9 6 Nordeste 15 Este 0 -- -- 81
2019-04-17 07:00:00 7 9 Este 12 Este 0 -- -- 75
2019-04-17 06:00:00 7.4 2 Noroeste 20 Sudeste 0 -- -- 73
2019-04-17 05:00:00 9.2 14 Este 22 Este 0 -- -- 66
2019-04-17 04:00:00 9.4 11 Este 22 Este 0 -- -- 66
2019-04-17 03:00:00 10.1 16 Este 23 Este 0 -- -- 62
2019-04-17 02:00:00 8.1 17 Este 19 Este 0 -- -- 77
2019-04-17 01:00:00 8.4 17 Nordeste 18 Nordeste 0 -- -- 74
2019-04-17 00:00:00 9.3 11 Nordeste 12 Nordeste 0 -- -- 68
2019-04-16 23:00:00 11.4 9 Sudeste 10 Sudeste 0 -- -- 56
2019-04-16 22:00:00 12.1 8 Sur 10 Sur 0 -- -- 57
2019-04-16 21:00:00 14 5 Sudeste 10 Sur 0 -- -- 54
2019-04-16 20:00:00 15.8 8 Sur 24 Sur 0 -- -- 47
2019-04-16 19:00:00 17.2 13 Sur 29 Sur 0 -- -- 39
2019-04-16 18:00:00 17.4 18 Sur 30 Sur 0 -- -- 41
2019-04-16 17:00:00 17.1 14 Sudeste 29 Sur 0 -- -- 38
2019-04-16 16:00:00 16.8 13 Sur 30 Sudeste 0 -- -- 37
2019-04-16 15:00:00 15.2 14 Sur 27 Sudeste 0 -- -- 50
2019-04-16 14:00:00 14.4 13 Sur 25 Sur 0 -- -- 47
2019-04-16 13:00:00 13.3 13 Sudeste 23 Este 0 -- -- 54
2019-04-16 12:00:00 11.8 12 Este 19 Este 0 -- -- 66
2019-04-16 11:00:00 10 9 Este 17 Este 0 -- -- 73
2019-04-16 10:00:00 7.5 11 Nordeste 16 Este 0 -- -- 96
2019-04-16 09:00:00 3.6 10 Nordeste 13 Nordeste 0 -- -- 100
2019-04-16 08:00:00 1.1 7 Este 9 Este 0 -- -- 100
2019-04-16 07:00:00 0.6 7 Nordeste 9 Nordeste 0 -- -- 100
2019-04-16 06:00:00 2.7 2 Oeste 6 Sur 0 -- -- 100
2019-04-16 05:00:00 2.8 3 Sur 12 Sudeste 0 -- -- 100
2019-04-16 04:00:00 3.1 4 Sudeste 10 Sudeste 0 -- -- 96
2019-04-16 03:00:00 3.9 9 Sudoeste 13 Oeste 0 -- -- 94
2019-04-16 02:00:00 5.3 12 Sudoeste 15 Oeste 0 -- -- 92
2019-04-16 01:00:00 5.3 4 Sudoeste 14 Oeste 0 -- -- 93
2019-04-16 00:00:00 6.4 10 Oeste 22 Oeste 0 -- -- 86
2019-04-15 23:00:00 7.4 12 Sudoeste 23 Oeste 0 -- -- 84
2019-04-15 22:00:00 9 10 Oeste 26 Sudoeste 0 -- -- 79
2019-04-15 21:00:00 10.5 18 Oeste 42 Sudoeste 0 -- -- 69
2019-04-15 20:00:00 12.3 21 Oeste 35 Sudoeste 0 -- -- 64
2019-04-15 19:00:00 12.9 21 Oeste 44 Sudoeste 0 -- -- 68
2019-04-15 18:00:00 12.1 26 Sudoeste 41 Sudoeste 0 -- -- 73
2019-04-15 17:00:00 11.1 21 Oeste 35 Oeste 0.2 -- -- 82
2019-04-15 16:00:00 10 20 Oeste 55 Oeste 0 -- -- 79
2019-04-15 15:00:00 10.2 27 Sudoeste 70 Sudoeste 0 -- -- 83
2019-04-15 14:00:00 14.6 35 Sudoeste 56 Sudoeste 0 -- -- 58
2019-04-15 13:00:00 15.6 31 Sudoeste 48 Sudoeste 0 -- -- 65
2019-04-15 12:00:00 13.8 28 Sudoeste 44 Sudoeste 0 -- -- 70
2019-04-15 11:00:00 14.2 29 Sudoeste 54 Sudoeste 0 -- -- 84
2019-04-15 10:00:00 13.5 20 Sur 30 Sur 0 -- -- 86
2019-04-15 09:00:00 13 15 Sudeste 23 Sur 0 -- -- 88
2019-04-15 08:00:00 11.5 14 Sudeste 19 Sudeste 0 -- -- 94
2019-04-15 07:00:00 11.6 9 Sudeste 11 Sur 0 -- -- 93
2019-04-15 06:00:00 12.3 6 Sur 12 Sur 0 -- -- 92
2019-04-15 05:00:00 11.7 5 Sur 10 Sur 0 -- -- 94
2019-04-15 04:00:00 12 8 Sur 13 Sur 0 -- -- 91
2019-04-15 03:00:00 11.8 9 Sur 12 Sudeste 0 -- -- 91
2019-04-15 02:00:00 13 7 Sudeste 9 Sudeste 0 -- -- 88
2019-04-15 01:00:00 12.9 6 Sudeste 9 Sudeste 0 -- -- 87
2019-04-15 00:00:00 13.1 5 Sudeste 10 Sudeste 0 -- -- 86
2019-04-14 23:00:00 13.2 4 Sur 8 Sur 0 -- -- 85
2019-04-14 22:00:00 12.9 7 Sur 8 Sur 0 -- -- 86
2019-04-14 21:00:00 15.2 5 Sudoeste 18 Sudoeste 0 -- -- 74
2019-04-14 20:00:00 16.5 12 Sudoeste 22 Sudoeste 0 -- -- 70
2019-04-14 19:00:00 17.3 13 Sudoeste 24 Oeste 0 -- -- 66
2019-04-14 18:00:00 17.3 14 Sudoeste 24 Sudoeste 0 -- -- 66
2019-04-14 17:00:00 16.6 16 Sudoeste 24 Sudoeste 0 -- -- 70
2019-04-14 16:00:00 16.3 14 Oeste 24 Oeste 0 -- -- 71
2019-04-14 15:00:00 16.6 12 Oeste 25 Sudoeste 0 -- -- 72
2019-04-14 14:00:00 15.9 13 Sudoeste 21 Sudoeste 0 -- -- 76
2019-04-14 13:00:00 14.8 14 Sudoeste 22 Oeste 0 -- -- 80
2019-04-14 12:00:00 13.7 13 Sudoeste 20 Sudoeste 0 -- -- 86
2019-04-14 11:00:00 13 11 Sudoeste 16 Sudoeste 0 -- -- 90
2019-04-14 10:00:00 11.5 12 Sudoeste 16 Sudoeste 0 -- -- 98
2019-04-14 09:00:00 10.5 8 Sudoeste 15 Oeste 0 -- -- 100
2019-04-14 08:00:00 9.9 11 Sudoeste 20 Sudoeste 0 -- -- 100
2019-04-14 07:00:00 9.7 14 Sudoeste 18 Sudoeste 0 -- -- 100
2019-04-14 06:00:00 10.2 10 Sudoeste 15 Sudoeste 0 -- -- 98
2019-04-14 05:00:00 10.6 10 Sudoeste 17 Sudoeste 0 -- -- 97
2019-04-14 04:00:00 10.3 8 Sudoeste 13 Sudoeste 0 -- -- 96
2019-04-14 03:00:00 10.4 7 Sudoeste 21 Oeste 0 -- -- 93
2019-04-14 02:00:00 11.6 15 Oeste 23 Oeste 0 -- -- 89
2019-04-14 01:00:00 11.8 15 Oeste 30 Sudoeste 0 -- -- 86
2019-04-14 00:00:00 12.3 16 Oeste 24 Oeste 0 -- -- 82
2019-04-13 23:00:00 12.1 11 Sudoeste 23 Oeste 0 -- -- 78
2019-04-13 22:00:00 13.3 15 Oeste 26 Oeste 0 -- -- 69
2019-04-13 21:00:00 14.8 18 Oeste 28 Oeste 0 -- -- 56
2019-04-13 20:00:00 16.2 12 Oeste 27 Sudoeste 0 -- -- 54
2019-04-13 19:00:00 17.3 17 Sudoeste 26 Oeste 0 -- -- 43
2019-04-13 18:00:00 17.5 16 Oeste 29 Oeste 0 -- -- 44
2019-04-13 17:00:00 17.8 14 Sudoeste 31 Oeste 0 -- -- 41
2019-04-13 16:00:00 18.2 15 Sudoeste 30 Sudoeste 0 -- -- 44
2019-04-13 15:00:00 16.7 12 Sudoeste 37 Sur 0 -- -- 44
2019-04-13 14:00:00 17.1 16 Sur 30 Sur 0 -- -- 44
2019-04-13 13:00:00 16.3 9 Sudoeste 21 Sudoeste 0 -- -- 48
2019-04-13 12:00:00 15.6 5 Sudoeste 12 Sur 0 -- -- 54
2019-04-13 11:00:00 12.9 5 Sudeste 10 Este 0 -- -- 57
2019-04-13 10:00:00 11.6 3 Este 8 Este 0 -- -- 65
2019-04-13 09:00:00 10.2 3 Este 13 Nordeste 0 -- -- 66
2019-04-13 08:00:00 5.6 12 Nordeste 14 Nordeste 0 -- -- 82
2019-04-13 07:00:00 6.8 2 Nordeste 5 Sur 0 -- -- 78
2019-04-13 06:00:00 7.1 3 Sur 6 Sur 0 -- -- 70
2019-04-13 05:00:00 6 5 Nordeste 9 Nordeste 0 -- -- 79
2019-04-13 04:00:00 7 3 Nordeste 5 Nordeste 0 -- -- 75
2019-04-13 03:00:00 8.1 0 Calma 3 Nordeste 0 -- -- 66
2019-04-13 02:00:00 7.9 5 Nordeste 10 Noroeste 0 -- -- 68
2019-04-13 01:00:00 7.2 2 Nordeste 8 Sudoeste 0 -- -- 72
2019-04-13 00:00:00 9.8 7 Sudoeste 9 Sudoeste 0 -- -- 61
2019-04-12 23:00:00 10.8 6 Oeste 12 Oeste 0 -- -- 57
2019-04-12 22:00:00 11.6 10 Sudoeste 12 Sudoeste 0 -- -- 52
2019-04-12 21:00:00 12.3 10 Sudoeste 17 Sur 0 -- -- 47
2019-04-12 20:00:00 15.8 9 Sur 27 Oeste 0 -- -- 41
2019-04-12 19:00:00 16.9 9 Noroeste 16 Oeste 0 -- -- 37
2019-04-12 18:00:00 15.6 6 Nordeste 12 Norte 0 -- -- 44
2019-04-12 17:00:00 15.8 9 Este 23 Norte 0 -- -- 42
2019-04-12 16:00:00 15 6 Nordeste 17 Nordeste 0 -- -- 48
2019-04-12 15:00:00 14.5 6 Norte 14 Norte 0 -- -- 50
2019-04-12 14:00:00 14.1 9 Norte 14 Noroeste 0 -- -- 51
2019-04-12 13:00:00 11.4 8 Este 18 Nordeste 0 -- -- 59
2019-04-12 12:00:00 11 8 Nordeste 21 Este 0 -- -- 66
2019-04-12 11:00:00 8.7 14 Este 22 Este 0 -- -- 72
2019-04-12 10:00:00 6.6 13 Nordeste 19 Nordeste 0 -- -- 85
2019-04-12 09:00:00 3.7 11 Nordeste 14 Nordeste 0 -- -- 95
2019-04-12 08:00:00 0.8 11 Nordeste 12 Nordeste 0 -- -- 99
2019-04-12 07:00:00 1.3 9 Nordeste 10 Nordeste 0 -- -- 100
2019-04-12 06:00:00 1.1 9 Nordeste 14 Nordeste 0 -- -- 98
2019-04-12 05:00:00 2.3 14 Nordeste 22 Este 0 -- -- 95
2019-04-12 04:00:00 3.2 19 Nordeste 23 Nordeste 0 -- -- 93
2019-04-12 03:00:00 3.3 17 Este 21 Nordeste 0 -- -- 89
2019-04-12 02:00:00 4.2 15 Nordeste 19 Nordeste 0 -- -- 81
2019-04-12 01:00:00 4.6 14 Nordeste 18 Nordeste 0 -- -- 79
2019-04-12 00:00:00 5.7 14 Nordeste -- -- 0 -- -- 74
2019-04-11 23:00:00 8 3 Sur -- -- 0 -- -- 62
2019-04-11 22:00:00 8.7 5 Sudeste 8 Sur 0 -- -- 60
2019-04-11 21:00:00 10.1 3 Sur 8 Sudoeste 0 -- -- 56
2019-04-11 20:00:00 13 3 Norte 8 Nordeste 0 -- -- 47
2019-04-11 19:00:00 13.7 3 Nordeste 8 Norte 0 -- -- 43
2019-04-11 18:00:00 13.4 2 Nordeste 12 Sudeste 0 -- -- 43
2019-04-11 17:00:00 13.5 4 Norte 13 Oeste 0 -- -- 42
2019-04-11 16:00:00 13.5 9 Noroeste 14 Oeste 0 -- -- 43
2019-04-11 15:00:00 12.2 6 Oeste 20 Noroeste 0 -- -- 48
2019-04-11 14:00:00 11.6 10 Oeste 21 Oeste 0 -- -- 54
2019-04-11 13:00:00 9.5 9 Oeste 19 Sudoeste 0 -- -- 60
2019-04-11 12:00:00 11.7 5 Noroeste 12 Este 0 -- -- 52
2019-04-11 11:00:00 9.3 6 Este 12 Este 0 -- -- 61
2019-04-11 10:00:00 8.1 4 Nordeste 9 Nordeste 0 -- -- 75
2019-04-11 09:00:00 3.5 6 Norte 12 Nordeste 0 -- -- 86
2019-04-11 08:00:00 0.3 12 Nordeste 12 Nordeste 0 -- -- 95
2019-04-11 07:00:00 1.2 8 Este 12 Este 0 -- -- 93
2019-04-11 06:00:00 2.5 11 Este 14 Este 0 -- -- 86
2019-04-11 05:00:00 2 12 Este 13 Este 0 -- -- 88
2019-04-11 04:00:00 2.5 9 Nordeste 13 Este 0 -- -- 86
2019-04-11 03:00:00 2.7 10 Este 12 Este 0 -- -- 85
2019-04-11 02:00:00 3.2 5 Este 11 Nordeste 0 -- -- 85
2019-04-11 01:00:00 3.6 5 Este 18 Nordeste 0 -- -- 82
2019-04-11 00:00:00 5.1 13 Nordeste 21 Nordeste 0 -- -- 80
2019-04-10 23:00:00 5.7 10 Norte 16 Nordeste 0 -- -- 77
2019-04-10 22:00:00 8.2 12 Norte 21 Norte 0 -- -- 69
2019-04-10 21:00:00 9.7 8 Norte 17 Nordeste 0 -- -- 69
2019-04-10 20:00:00 12.5 15 Nordeste 32 Este 0 -- -- 56
2019-04-10 19:00:00 10.9 18 Norte 35 Noroeste 0.2 -- -- 60
2019-04-10 18:00:00 12.5 22 Norte 37 Norte 0 -- -- 55
2019-04-10 17:00:00 14.3 24 Noroeste 43 Noroeste 0 -- -- 52
2019-04-10 16:00:00 13.6 20 Noroeste 42 Oeste 0 -- -- 53
2019-04-10 15:00:00 12.2 19 Noroeste 40 Oeste 0 -- -- 59
2019-04-10 14:00:00 10.3 18 Oeste 33 Sudoeste 0 -- -- 69
2019-04-10 13:00:00 10.4 20 Oeste 31 Oeste 0 -- -- 68
2019-04-10 12:00:00 9.4 22 Oeste 36 Oeste 0 -- -- 71
2019-04-10 11:00:00 8.1 19 Oeste 36 Oeste 0 -- -- 73
2019-04-10 10:00:00 5.9 24 Oeste 35 Sudoeste 0 -- -- 83
2019-04-10 09:00:00 3.9 21 Sudoeste 28 Sudoeste 0 -- -- 95
2019-04-10 08:00:00 3 17 Sudoeste 24 Sudoeste 0 -- -- 97
2019-04-10 07:00:00 3.4 18 Sudoeste 28 Sudoeste 0 -- -- 95
2019-04-10 06:00:00 3.3 18 Sudoeste 33 Oeste 0 -- -- 97
2019-04-10 05:00:00 4.1 19 Sudoeste 30 Oeste 0 -- -- 96
2019-04-10 04:00:00 4.4 10 Sudoeste 21 Oeste 0 -- -- 98
2019-04-10 03:00:00 4.3 15 Oeste 28 Oeste 0.2 -- -- 98
2019-04-10 02:00:00 4.5 14 Oeste 25 Sudoeste 0 -- -- 98
2019-04-10 01:00:00 4.8 13 Oeste 23 Oeste 0 -- -- 97
2019-04-10 00:00:00 4.6 10 Oeste 24 Oeste 0 -- -- 98
2019-04-09 23:00:00 5.3 14 Oeste 27 Oeste 0.4 -- -- 95
2019-04-09 22:00:00 5.7 14 Sudoeste 27 Sudoeste 0 -- -- 93
2019-04-09 21:00:00 6.4 19 Sudoeste 31 Sudoeste 0 -- -- 86
2019-04-09 20:00:00 6.6 22 Oeste 52 Sudoeste 0 -- -- 90
2019-04-09 19:00:00 9.4 24 Oeste 44 Sudoeste 0 -- -- 74
2019-04-09 18:00:00 9 17 Oeste 35 Oeste 0 -- -- 79
2019-04-09 17:00:00 7.1 20 Oeste 44 Sudoeste 0.2 -- -- 91
2019-04-09 16:00:00 7.7 26 Oeste 46 Sudoeste 0.2 -- -- 80
2019-04-09 15:00:00 7.8 24 Oeste 37 Sudoeste 0 -- -- 78
2019-04-09 14:00:00 7.8 21 Oeste 35 Oeste 0 -- -- 71
2019-04-09 13:00:00 5.5 15 Sudoeste 32 Oeste 0 -- -- 91
2019-04-09 12:00:00 3.7 21 Sudoeste 33 Oeste 0 -- -- 98
2019-04-09 11:00:00 2.5 18 Sudoeste 45 Oeste 1.6 -- -- 100
2019-04-09 10:00:00 3.4 23 Oeste 40 Oeste 2.4 -- -- 97
2019-04-09 09:00:00 4.4 19 Sudoeste 38 Sudoeste 0.2 -- -- 99
2019-04-09 08:00:00 4.5 23 Sudoeste 39 Sudoeste 0.2 -- -- 100
2019-04-09 07:00:00 4.6 22 Sudoeste 36 Sur 0.4 -- -- 99
2019-04-09 06:00:00 4.8 23 Sudoeste 35 Sudoeste 0.2 -- -- 98
2019-04-09 05:00:00 4.8 16 Sur 33 Sudoeste 0 -- -- 98
2019-04-09 04:00:00 4.6 17 Sudoeste 37 Sudoeste 0 -- -- 99
2019-04-09 03:00:00 4.9 18 Sudoeste 30 Sudoeste 0 -- -- 94
2019-04-09 02:00:00 4.8 18 Sudoeste 34 Sur 0 -- -- 91
2019-04-09 01:00:00 4.8 21 Sudoeste 30 Sudoeste 0 -- -- 89
2019-04-09 00:00:00 5.3 11 Sudoeste 22 Sudoeste 0 -- -- 84
2019-04-08 23:00:00 4.8 12 Sudoeste 17 Sudoeste 0 -- -- 91
2019-04-08 22:00:00 5.3 6 Sudoeste 14 Sudoeste 0 -- -- 91
2019-04-08 21:00:00 6 10 Sur 22 Sudoeste 0 -- -- 83
2019-04-08 20:00:00 7.5 20 Sur 31 Sudoeste 0 -- -- 76
2019-04-08 19:00:00 9.4 21 Sudoeste 39 Sudoeste 0 -- -- 64
2019-04-08 18:00:00 9.7 26 Sudoeste 39 Sudoeste 0 -- -- 63
2019-04-08 17:00:00 11.2 16 Sudoeste 39 Sudoeste 0 -- -- 50
2019-04-08 16:00:00 11.5 24 Sudoeste 40 Oeste 0 -- -- 52
2019-04-08 15:00:00 9.5 23 Sudoeste 38 Sudoeste 0 -- -- 66
2019-04-08 14:00:00 9.8 23 Sudoeste 49 Sudoeste 0 -- -- 62
2019-04-08 13:00:00 9.7 24 Oeste 38 Sudoeste 0 -- -- 69
2019-04-08 12:00:00 8.4 22 Oeste 39 Sudoeste 0 -- -- 73
2019-04-08 11:00:00 7.4 23 Sudoeste 36 Sudoeste 0.2 -- -- 81
2019-04-08 10:00:00 6.7 14 Sudoeste 23 Oeste 0 -- -- 92
2019-04-08 09:00:00 5.3 15 Sudoeste 22 Sudoeste 0 -- -- 99
2019-04-08 08:00:00 5.2 10 Sudoeste 22 Oeste 0 -- -- 100
2019-04-08 07:00:00 5.9 14 Oeste 31 Sudoeste 0 -- -- 100
2019-04-08 06:00:00 6.8 19 Oeste 38 Oeste 0 -- -- 99
2019-04-08 05:00:00 7 26 Sudoeste 42 Sudoeste 0.2 -- -- 100
2019-04-08 04:00:00 7.2 20 Sudoeste 37 Sudoeste 0.6 -- -- 100
2019-04-08 03:00:00 7.3 21 Sudoeste 37 Sudoeste 0.8 -- -- 100
2019-04-08 02:00:00 7.6 27 Sudoeste 40 Sudoeste 0 -- -- 99
2019-04-08 01:00:00 7.6 22 Sudoeste 41 Sudoeste 0 -- -- 99
2019-04-08 00:00:00 7.8 25 Sudoeste 42 Sudoeste 0.2 -- -- 100
2019-04-07 23:00:00 7.6 20 Sudoeste 35 Sudoeste 0.6 -- -- 100
2019-04-07 22:00:00 7.2 14 Sudoeste 24 Sur 1.4 -- -- 100
2019-04-07 21:00:00 6.5 15 Sur 23 Sur 0.4 -- -- 100
2019-04-07 20:00:00 5.8 12 Sur 19 Sur 0.6 -- -- 99
2019-04-07 19:00:00 5.9 13 Sur 20 Sur 0.8 -- -- 98
2019-04-07 18:00:00 5.6 11 Sur 18 Sur 0.6 -- -- 95
2019-04-07 17:00:00 5.3 10 Sudoeste 32 Sudoeste 1 -- -- 93
2019-04-07 16:00:00 5 22 Sudoeste 40 Sudoeste 0.8 -- -- 92
2019-04-07 15:00:00 7.6 16 Sudoeste 28 Sudoeste 0 -- -- 81
2019-04-07 14:00:00 6.9 18 Sudoeste 27 Sudoeste 0 -- -- 73
2019-04-07 13:00:00 6.6 15 Sudoeste 25 Sudoeste 0 -- -- 76
2019-04-07 12:00:00 4.9 9 Sudoeste 18 Sudoeste 0 -- -- 90
2019-04-07 11:00:00 4.2 13 Sudoeste 22 Sudoeste 0 -- -- 91
2019-04-07 10:00:00 3.8 11 Sudoeste 17 Sudoeste 0 -- -- 97
2019-04-07 09:00:00 2.5 10 Sudoeste 18 Sudoeste 0 -- -- 99
2019-04-07 08:00:00 1 12 Sudoeste 20 Sudoeste 0 -- -- 100
2019-04-07 07:00:00 1.3 17 Sudoeste 26 Sudoeste 0 -- -- 100
2019-04-07 06:00:00 1.6 14 Oeste 26 Sudoeste 0 -- -- 100
2019-04-07 05:00:00 1.9 11 Oeste 18 Sudoeste 0 -- -- 100
2019-04-07 04:00:00 1.7 8 Sudoeste 23 Sudoeste 0 -- -- 100
2019-04-07 03:00:00 2 15 Sudoeste 23 Sudoeste 0 -- -- 100
2019-04-07 02:00:00 1.6 13 Sudoeste 23 Sudoeste 0.2 -- -- 100
2019-04-07 01:00:00 1.7 15 Oeste 26 Sudoeste 0 -- -- 99
2019-04-07 00:00:00 2.1 14 Sudoeste 28 Sudoeste 0 -- -- 99
2019-04-06 23:00:00 2.4 21 Oeste 37 Oeste 0.2 -- -- 96
2019-04-06 22:00:00 2.3 9 Sudoeste 21 Sudoeste 0 -- -- 94
2019-04-06 21:00:00 1.7 10 Oeste 43 Oeste 0.4 -- -- 96
2019-04-06 20:00:00 5.5 13 Oeste 44 Oeste 0 -- -- 81
2019-04-06 19:00:00 7.1 19 Oeste 52 Oeste 0 -- -- 70
2019-04-06 18:00:00 6.2 32 Oeste 54 Oeste 0 -- -- 78
2019-04-06 17:00:00 5.6 41 Oeste 61 Oeste 0 -- -- 79
2019-04-06 16:00:00 4 28 Oeste 51 Oeste 0.2 -- -- 97
2019-04-06 15:00:00 3.4 32 Sudoeste 52 Sudoeste 0 -- -- 99
2019-04-06 14:00:00 3.1 27 Sudoeste 50 Sudoeste 1.4 -- -- 99
2019-04-06 13:00:00 3.1 32 Sudoeste 51 Sudoeste 0 -- -- 99
2019-04-06 12:00:00 1.8 28 Sudoeste 53 Sudoeste 0.4 -- -- 100
2019-04-06 11:00:00 1.5 30 Sudoeste 49 Sudoeste 0.2 -- -- 100
2019-04-06 10:00:00 1.5 27 Sudoeste 48 Sudoeste 0.8 -- -- 99
2019-04-06 09:00:00 1.5 25 Sudoeste 42 Sudoeste 0 -- -- 100
2019-04-06 08:00:00 1.6 26 Sudoeste 39 Sudoeste 0 -- -- 100
2019-04-06 07:00:00 1.4 26 Sudoeste 46 Sudoeste 0.6 -- -- 100
2019-04-06 06:00:00 1.1 24 Sudoeste 34 Sudoeste 1 -- -- 100
2019-04-06 05:00:00 1.4 15 Sudoeste 30 Sudoeste 1.2 -- -- 100
2019-04-06 04:00:00 2 19 Sudoeste 33 Sur 0 -- -- 99
2019-04-06 03:00:00 2 16 Sudoeste 26 Sudoeste 0 -- -- 100
2019-04-06 02:00:00 2.1 19 Sudoeste 30 Sudoeste 0 -- -- 99
2019-04-06 01:00:00 2.1 18 Sudoeste 29 Sudoeste 0 -- -- 99
2019-04-06 00:00:00 2.1 15 Sudoeste 27 Sudoeste 0 -- -- 99
2019-04-05 23:00:00 2.4 17 Sudoeste 25 Sudoeste 0 -- -- 99
2019-04-05 22:00:00 2.3 12 Sudoeste 21 Sur 0 -- -- 99
2019-04-05 21:00:00 2.3 10 Sudoeste 28 Sudoeste 0.4 -- -- 96
2019-04-05 20:00:00 3.3 6 Sudoeste 29 Sudoeste 1 -- -- 94
2019-04-05 19:00:00 6 22 Sudoeste 32 Sudoeste 0 -- -- 70
2019-04-05 18:00:00 6.4 17 Oeste 42 Sudoeste 0 -- -- 66
2019-04-05 17:00:00 5.9 22 Oeste 38 Oeste 0.2 -- -- 72
2019-04-05 16:00:00 6.9 16 Sudoeste 44 Oeste 0 -- -- 67
2019-04-05 15:00:00 6.4 21 Sudoeste 36 Sudoeste 0 -- -- 70
2019-04-05 14:00:00 6 21 Sudoeste 35 Sudoeste 0.2 -- -- 64
2019-04-05 13:00:00 4.6 21 Sudoeste 33 Oeste 0 -- -- 76
2019-04-05 12:00:00 3.6 21 Sudoeste 32 Sudoeste 0 -- -- 87
2019-04-05 11:00:00 2.4 18 Sudoeste 27 Sudoeste 0 -- -- 93
2019-04-05 10:00:00 2 19 Sudoeste 29 Sudoeste 0 -- -- 98
2019-04-05 09:00:00 1.4 15 Sudoeste 24 Sudoeste 0 -- -- 99
2019-04-05 08:00:00 1.4 15 Sudoeste 26 Sudoeste 0 -- -- 99
2019-04-05 07:00:00 1.2 18 Sudoeste 28 Sudoeste 0 -- -- 99
2019-04-05 06:00:00 2 15 Sudoeste 35 Oeste 0.2 -- -- 98
2019-04-05 05:00:00 2.6 17 Sudoeste 36 Sudoeste 0.2 -- -- 97
2019-04-05 04:00:00 3.5 20 Sudoeste 35 Sudoeste 0.2 -- -- 100
2019-04-05 03:00:00 3.4 19 Sudoeste 36 Sudoeste 0.4 -- -- 100
2019-04-05 02:00:00 3.1 22 Sur 35 Sur 0.2 -- -- 100
2019-04-05 01:00:00 3 24 Sur 37 Sur 1.4 -- -- 99
2019-04-05 00:00:00 3.1 23 Sur 35 Sur 0.6 -- -- 99
2019-04-04 23:00:00 2.9 19 Sur 31 Sudoeste 0.4 -- -- 99
2019-04-04 22:00:00 2.7 15 Sudoeste 35 Sudoeste 0.6 -- -- 98
2019-04-04 21:00:00 2.6 17 Sudoeste 31 Sudoeste 1 -- -- 98
2019-04-04 20:00:00 2.8 19 Sudoeste 32 Sudoeste 1.2 -- -- 96
2019-04-04 19:00:00 3.6 20 Sudoeste 30 Sudoeste 0.4 -- -- 93
2019-04-04 18:00:00 3.9 20 Sudoeste 36 Sudoeste 0.2 -- -- 91
2019-04-04 17:00:00 5.1 25 Sudoeste 46 Sudoeste 0 -- -- 69
2019-04-04 16:00:00 6.6 28 Oeste 39 Sudoeste 0 -- -- 57
2019-04-04 15:00:00 7.1 26 Sudoeste 41 Sudoeste 0 -- -- 54
2019-04-04 14:00:00 6.3 22 Sudoeste 37 Sudoeste 0 -- -- 58
2019-04-04 13:00:00 6.2 17 Oeste 32 Oeste 0 -- -- 56
2019-04-04 12:00:00 5 16 Oeste 31 Oeste 0 -- -- 65
2019-04-04 11:00:00 4.3 17 Oeste 26 Oeste 0 -- -- 64
2019-04-04 10:00:00 1.9 13 Sudoeste 18 Oeste 0 -- -- 77
2019-04-04 09:00:00 -0.6 8 Oeste 13 Sudoeste 0 -- -- 85
2019-04-04 08:00:00 -2.2 4 Sur 14 Sudoeste 0 -- -- 90
2019-04-04 07:00:00 -2 14 Sudoeste 17 Oeste 0 -- -- 88
2019-04-04 06:00:00 -2.1 7 Oeste 15 Oeste 0 -- -- 89
2019-04-04 05:00:00 -1.7 8 Noroeste 14 Noroeste 0 -- -- 88
2019-04-04 04:00:00 -1.5 8 Noroeste 15 Oeste 0 -- -- 85
2019-04-04 03:00:00 -0.6 8 Oeste 13 Oeste 0 -- -- 81
2019-04-04 02:00:00 -1.3 6 Noroeste 16 Oeste 0 -- -- 84
2019-04-04 01:00:00 0 10 Oeste 14 Oeste 0 -- -- 76
2019-04-04 00:00:00 0.4 9 Oeste 15 Noroeste 0 -- -- 74
2019-04-03 23:00:00 1 12 Noroeste 19 Noroeste 0 -- -- 70
2019-04-03 22:00:00 2.7 14 Noroeste 26 Noroeste 0 -- -- 64
2019-04-03 21:00:00 5.2 14 Noroeste 35 Noroeste 0 -- -- 59
2019-04-03 20:00:00 9 15 Norte 32 Norte 0 -- -- 42
2019-04-03 19:00:00 8.4 21 Noroeste 42 Oeste 0 -- -- 50
2019-04-03 18:00:00 9.5 28 Noroeste 45 Noroeste 0 -- -- 44
2019-04-03 17:00:00 10 31 Noroeste 44 Oeste 0 -- -- 39
2019-04-03 16:00:00 10 28 Oeste 41 Oeste 0 -- -- 47
2019-04-03 15:00:00 10.4 27 Noroeste 41 Oeste 0 -- -- 42
2019-04-03 14:00:00 8.9 19 Noroeste 30 Noroeste 0 -- -- 44
2019-04-03 13:00:00 9.9 12 Noroeste 30 Noroeste 0 -- -- 44
2019-04-03 12:00:00 8.4 17 Noroeste 28 Noroeste 0 -- -- 51
2019-04-03 11:00:00 7.5 12 Noroeste 20 Noroeste 0 -- -- 55
2019-04-03 10:00:00 3.7 4 Noroeste 7 Noroeste 0 -- -- 79
2019-04-03 09:00:00 2.5 3 Noroeste 9 Oeste 0 -- -- 85
2019-04-03 08:00:00 1.1 7 Oeste 12 Sudoeste 0 -- -- 89
2019-04-03 07:00:00 1.3 9 Sudoeste 15 Oeste 0 -- -- 87
2019-04-03 06:00:00 2.1 7 Sudoeste 17 Sudoeste 0 -- -- 84
2019-04-03 05:00:00 2.9 9 Sudoeste 18 Sudoeste 0 -- -- 83
2019-04-03 04:00:00 3.1 12 Sudoeste 21 Sudoeste 0 -- -- 85
2019-04-03 03:00:00 4.2 13 Sudoeste 17 Oeste 0 -- -- 83
2019-04-03 02:00:00 5.5 14 Oeste 19 Oeste 0 -- -- 80
2019-04-03 01:00:00 6.8 7 Sudoeste 14 Oeste 0 -- -- 72
2019-04-03 00:00:00 7.7 11 Oeste 15 Oeste 0 -- -- 65
2019-04-02 23:00:00 8 9 Oeste 20 Oeste 0 -- -- 65
2019-04-02 22:00:00 9.9 8 Sudoeste 22 Oeste 0 -- -- 47
2019-04-02 21:00:00 11.3 13 Oeste 32 Oeste 0 -- -- 45
2019-04-02 20:00:00 14 21 Oeste 43 Oeste 0 -- -- 39
2019-04-02 19:00:00 15.9 24 Oeste 41 Oeste 0 -- -- 35
2019-04-02 18:00:00 16.8 23 Oeste 35 Sudoeste 0 -- -- 29
2019-04-02 17:00:00 16.4 16 Sudoeste 35 Sudoeste 0 -- -- 40
2019-04-02 16:00:00 15.7 13 Noroeste 28 Oeste 0 -- -- 46
2019-04-02 15:00:00 15.7 13 Noroeste 20 Noroeste 0 -- -- 41
2019-04-02 14:00:00 14.4 11 Oeste 19 Oeste 0 -- -- 48
2019-04-02 13:00:00 14.5 4 Noroeste 15 Este 0 -- -- 49
2019-04-02 12:00:00 13.8 6 Nordeste 19 Este 0 -- -- 54
2019-04-02 11:00:00 12 8 Nordeste 14 Nordeste 0 -- -- 62
2019-04-02 10:00:00 10.1 3 Norte 8 Noroeste 0 -- -- 78
2019-04-02 09:00:00 5.5 2 Nordeste 4 Norte 0 -- -- 89
2019-04-02 08:00:00 4.1 5 Noroeste 10 Noroeste 0 -- -- 96
2019-04-02 07:00:00 2.9 9 Noroeste 10 Noroeste 0 -- -- 97
2019-04-02 06:00:00 2.7 6 Oeste 11 Nordeste 0 -- -- 93
2019-04-02 05:00:00 4.7 13 Norte 15 Norte 0 -- -- 91
2019-04-02 04:00:00 5.5 4 Sudoeste 11 Oeste 0 -- -- 93
2019-04-02 03:00:00 6.1 7 Oeste 12 Oeste 0 -- -- 88
2019-04-02 02:00:00 6.9 6 Oeste 15 Sudoeste 0 -- -- 87
2019-04-02 01:00:00 8.3 10 Sudoeste 16 Oeste 0 -- -- 83
2019-04-02 00:00:00 7.8 9 Sudoeste 17 Sudoeste 0 -- -- 85
2019-04-01 23:00:00 8.3 12 Sudoeste 22 Sudoeste 0 -- -- 82
2019-04-01 22:00:00 8.6 14 Sudoeste 21 Sudoeste 0 -- -- 79
2019-04-01 21:00:00 10.1 9 Sudoeste 16 Sudoeste 0 -- -- 71
2019-04-01 20:00:00 11 11 Sudoeste 17 Sudoeste 0 -- -- 76
2019-04-01 19:00:00 11.7 4 Oeste 35 Noroeste 0 -- -- 68
2019-04-01 18:00:00 12.4 18 Noroeste 30 Sudoeste 0 -- -- 63
2019-04-01 17:00:00 15.4 6 Sudoeste 20 Sudoeste 0 -- -- 43
2019-04-01 16:00:00 16.2 13 Sur 23 Sur 0 -- -- 41
2019-04-01 15:00:00 15.6 11 Sudeste 23 Sur 0 -- -- 45
2019-04-01 14:00:00 15.2 6 Sudeste 14 Sudeste 0 -- -- 48
2019-04-01 13:00:00 14.4 6 Sudeste 18 Este 0 -- -- 52
2019-04-01 12:00:00 11.7 13 Este 21 Este 0 -- -- 63
2019-04-01 11:00:00 9.4 14 Nordeste 20 Nordeste 0 -- -- 75
2019-04-01 10:00:00 7.6 14 Nordeste 23 Nordeste 0 -- -- 82
2019-04-01 09:00:00 4.2 15 Nordeste 17 Nordeste 0 -- -- 93
2019-04-01 08:00:00 2.4 14 Este 17 Este 0 -- -- 96
2019-04-01 07:00:00 2.2 7 Este 15 Nordeste 0 -- -- 94
2019-04-01 06:00:00 4 13 Nordeste 18 Nordeste 0 -- -- 91
2019-04-01 05:00:00 4.6 15 Nordeste 17 Nordeste 0 -- -- 90
2019-04-01 04:00:00 5 13 Nordeste 18 Nordeste 0 -- -- 89
2019-04-01 03:00:00 5.5 12 Nordeste 18 Nordeste 0 -- -- 87
2019-04-01 02:00:00 6.6 14 Nordeste 22 Nordeste 0 -- -- 82
2019-04-01 01:00:00 6.7 13 Nordeste 17 Nordeste 0 -- -- 74
2019-04-01 00:00:00 8.7 10 Este 14 Este 0 -- -- 69
2019-03-31 23:00:00 9.5 13 Este 19 Este 0 -- -- 55
2019-03-31 22:00:00 10 10 Este 15 Este 0 -- -- 52
2019-03-31 21:00:00 11.7 13 Este 22 Nordeste 0 -- -- 47
2019-03-31 20:00:00 14.2 15 Nordeste 26 Nordeste 0 -- -- 36
2019-03-31 19:00:00 15.5 15 Este 34 Nordeste 0 -- -- 35
2019-03-31 18:00:00 16.6 18 Nordeste 27 Nordeste 0 -- -- 31
2019-03-31 17:00:00 17.7 16 Nordeste 23 Este 0 -- -- 31
2019-03-31 16:00:00 17.6 17 Sudeste 30 Este 0 -- -- 28
2019-03-31 15:00:00 17 18 Nordeste 32 Este 0 -- -- 40
2019-03-31 14:00:00 16.1 22 Nordeste 37 Nordeste 0 -- -- 40
2019-03-31 13:00:00 14.7 24 Nordeste 36 Nordeste 0 -- -- 42
2019-03-31 12:00:00 12.9 24 Nordeste 33 Este 0 -- -- 45
2019-03-31 11:00:00 11 24 Nordeste 35 Nordeste 0 -- -- 49
2019-03-31 10:00:00 9 22 Nordeste 30 Nordeste 0 -- -- 56
2019-03-31 09:00:00 6.5 22 Nordeste 29 Nordeste 0 -- -- 65
2019-03-31 08:00:00 4.7 20 Nordeste 27 Nordeste 0 -- -- 73
2019-03-31 07:00:00 5.5 19 Nordeste 24 Nordeste 0 -- -- 73
2019-03-31 06:00:00 6.5 20 Nordeste 26 Nordeste 0 -- -- 72
2019-03-31 05:00:00 5.8 17 Nordeste 21 Norte 0 -- -- 75
2019-03-31 03:00:00 7 17 Nordeste 21 Nordeste 0 -- -- 70
2019-03-31 01:00:00 7.9 15 Nordeste 17 Nordeste 0 -- -- 64
2019-03-31 00:00:00 8.1 13 Nordeste 14 Nordeste 0 -- -- 64
2019-03-30 23:00:00 9.2 13 Nordeste 17 Nordeste 0 -- -- 62
2019-03-30 22:00:00 9.9 9 Nordeste 12 Norte 0 -- -- 58
2019-03-30 21:00:00 9.9 12 Norte 15 Norte 0 -- -- 62
2019-03-30 20:00:00 12.1 9 Norte 15 Norte 0 -- -- 55
2019-03-30 19:00:00 14.9 5 Norte 12 Norte 0 -- -- 45
2019-03-30 18:00:00 15.3 11 Norte 22 Norte 0 -- -- 42
2019-03-30 17:00:00 17.6 8 Norte 15 Nordeste 0 -- -- 33
2019-03-30 16:00:00 17.2 6 Norte 13 Norte 0 -- -- 32
2019-03-30 15:00:00 15 4 Este 17 Este 0 -- -- 41
2019-03-30 14:00:00 15.4 5 Norte 20 Sudeste 0 -- -- 42
2019-03-30 13:00:00 15.9 10 Sudeste 21 Sudeste 0 -- -- 40
2019-03-30 12:00:00 16.3 6 Sudeste 17 Sudeste 0 -- -- 39
2019-03-30 11:00:00 13.3 12 Este 17 Este 0 -- -- 44
2019-03-30 10:00:00 10.5 9 Nordeste 13 Este 0 -- -- 55
2019-03-30 09:00:00 9 4 Sudeste 10 Este 0 -- -- 56
2019-03-30 08:00:00 5.8 10 Este 13 Nordeste 0 -- -- 67
2019-03-30 07:00:00 6.2 4 Sudeste 8 Este 0 -- -- 60
2019-03-30 06:00:00 7.3 3 Oeste 5 Nordeste 0 -- -- 54
2019-03-30 05:00:00 5.9 3 Norte 5 Nordeste 0 -- -- 66
2019-03-30 04:00:00 6.4 4 Oeste 17 Sur 0 -- -- 58
2019-03-30 03:00:00 8.3 13 Sur 18 Sur 0 -- -- 49
2019-03-30 02:00:00 7.6 12 Sur 14 Sur 0 -- -- 53
2019-03-30 01:00:00 8.5 8 Sur 22 Sudoeste 0 -- -- 49
2019-03-30 00:00:00 10.6 8 Sur 14 Sur 0 -- -- 43
2019-03-29 23:00:00 11 5 Sur 6 Sur 0 -- -- 39
2019-03-29 22:00:00 10.4 2 Sur 6 Sudoeste 0 -- -- 40
2019-03-29 21:00:00 11.3 5 Sudoeste 8 Sur 0 -- -- 37
2019-03-29 20:00:00 12.4 9 Sur 16 Sur 0 -- -- 36
2019-03-29 19:00:00 16 13 Sur 20 Sudoeste 0 -- -- 29
2019-03-29 18:00:00 17.2 13 Sudoeste 24 Sur 0 -- -- 26
2019-03-29 17:00:00 17.6 8 Oeste 27 Sudoeste 0 -- -- 23
2019-03-29 16:00:00 17.6 10 Sudoeste 26 Oeste 0 -- -- 27
2019-03-29 15:00:00 16.9 13 Sudoeste 28 Sudoeste 0 -- -- 30
2019-03-29 14:00:00 16.3 14 Sudoeste 28 Sudoeste 0 -- -- 33
2019-03-29 13:00:00 15.8 13 Oeste 25 Sudoeste 0 -- -- 32
2019-03-29 12:00:00 15.1 5 Nordeste 13 Este 0 -- -- 43
2019-03-29 11:00:00 12.8 5 Nordeste 12 Este 0 -- -- 47
2019-03-29 10:00:00 10.8 7 Nordeste 17 Nordeste 0 -- -- 51
2019-03-29 09:00:00 7.6 11 Nordeste 16 Nordeste 0 -- -- 58
2019-03-29 08:00:00 4.3 13 Nordeste 18 Nordeste 0 -- -- 69
2019-03-29 07:00:00 2.5 15 Nordeste 18 Nordeste 0 -- -- 76
2019-03-29 06:00:00 2.6 10 Nordeste 18 Nordeste 0 -- -- 75
2019-03-29 05:00:00 3.4 17 Nordeste 21 Nordeste 0 -- -- 73
2019-03-29 04:00:00 3.7 18 Nordeste 20 Nordeste 0 -- -- 73
2019-03-29 03:00:00 4.6 15 Nordeste 22 Nordeste 0 -- -- 72
2019-03-29 02:00:00 6.1 18 Nordeste 24 Nordeste 0 -- -- 64
2019-03-29 01:00:00 6.9 16 Nordeste 26 Nordeste 0 -- -- 63
2019-03-29 00:00:00 7.3 18 Nordeste 25 Nordeste 0 -- -- 64
2019-03-28 23:00:00 8 14 Nordeste 18 Nordeste 0 -- -- 58
2019-03-28 22:00:00 9.1 15 Nordeste 25 Este 0 -- -- 50
2019-03-28 21:00:00 8.7 10 Nordeste 13 Nordeste 0 -- -- 54
2019-03-28 20:00:00 11.2 10 Este 24 Este 0 -- -- 41
2019-03-28 19:00:00 15.2 19 Este 28 Nordeste 0 -- -- 33
2019-03-28 18:00:00 16.3 21 Este 31 Este 0 -- -- 32
2019-03-28 17:00:00 16.7 19 Nordeste 35 Este 0 -- -- 31
2019-03-28 16:00:00 16.7 19 Este 34 Nordeste 0 -- -- 30
2019-03-28 15:00:00 15.9 18 Este 35 Este 0 -- -- 36
2019-03-28 14:00:00 14.7 22 Nordeste 36 Este 0 -- -- 36
2019-03-28 13:00:00 13.7 20 Este 33 Este 0 -- -- 41
2019-03-28 12:00:00 11.4 23 Nordeste 45 Este 0 -- -- 46
2019-03-28 11:00:00 10.1 30 Nordeste 39 Este 0 -- -- 45
2019-03-28 10:00:00 8.8 19 Nordeste 37 Este 0 -- -- 49
2019-03-28 09:00:00 6.2 22 Nordeste 35 Nordeste 0 -- -- 61
2019-03-28 08:00:00 3.1 14 Este 23 Nordeste 0 -- -- 69
2019-03-28 07:00:00 1.9 15 Este 32 Este 0 -- -- 67
2019-03-28 06:00:00 4.1 23 Este 41 Nordeste 0 -- -- 54
2019-03-28 05:00:00 5 32 Nordeste 45 Nordeste 0 -- -- 47
2019-03-28 04:00:00 5.3 31 Nordeste 46 Nordeste 0 -- -- 40
2019-03-28 03:00:00 5 28 Nordeste 43 Nordeste 0 -- -- 41
2019-03-28 02:00:00 5.9 27 Nordeste 42 Nordeste 0 -- -- 36
2019-03-28 01:00:00 6.7 27 Nordeste 41 Nordeste 0 -- -- 35
2019-03-28 00:00:00 7.4 28 Nordeste 39 Nordeste 0 -- -- 37
2019-03-27 23:00:00 8.3 26 Nordeste 40 Este 0 -- -- 37
2019-03-27 22:00:00 9.9 30 Este 41 Este 0 -- -- 36
2019-03-27 21:00:00 10.7 18 Nordeste 28 Nordeste 0 -- -- 35
2019-03-27 20:00:00 12.3 19 Nordeste 32 Este 0 -- -- 29
2019-03-27 19:00:00 15.6 24 Este 36 Nordeste 0 -- -- 21
2019-03-27 18:00:00 17.3 27 Nordeste 42 Este 0 -- -- 19
2019-03-27 17:00:00 18.1 28 Nordeste 44 Este 0 -- -- 19
2019-03-27 16:00:00 17.8 32 Nordeste 49 Este 0 -- -- 22
2019-03-27 15:00:00 17.3 29 Nordeste 45 Nordeste 0 -- -- 20
2019-03-27 14:00:00 15.8 24 Este 41 Este 0 -- -- 23
2019-03-27 13:00:00 14.7 29 Este 44 Nordeste 0 -- -- 26
2019-03-27 12:00:00 12.2 26 Nordeste 38 Nordeste 0 -- -- 37
2019-03-27 11:00:00 10.1 28 Este 43 Nordeste 0 -- -- 40
2019-03-27 10:00:00 8.3 31 Nordeste 46 Este 0 -- -- 45
2019-03-27 09:00:00 6.3 31 Nordeste 41 Nordeste 0 -- -- 52
2019-03-27 08:00:00 4.1 28 Nordeste 42 Nordeste 0 -- -- 60
2019-03-27 07:00:00 3.3 29 Nordeste 40 Nordeste 0 -- -- 63
2019-03-27 06:00:00 3.6 26 Nordeste 41 Nordeste 0 -- -- 59
2019-03-27 05:00:00 3.6 28 Nordeste 45 Nordeste 0 -- -- 58
2019-03-27 04:00:00 3.7 24 Nordeste 41 Nordeste 0 -- -- 54
2019-03-27 03:00:00 4.1 28 Nordeste 44 Nordeste 0 -- -- 48
2019-03-27 02:00:00 4.6 35 Nordeste 51 Nordeste 0 -- -- 43
2019-03-27 01:00:00 5.1 30 Nordeste 46 Nordeste 0 -- -- 39
2019-03-27 00:00:00 5.9 32 Nordeste 44 Nordeste 0 -- -- 35